sensor_id;sensor_type;location;lat;lon;timestamp;pressure;altitude;pressure_sealevel;temperature;humidity
10958;BME280;5531;42.570;23.676;2022-12-29T00:01:25;92885.91;;;2.06;100.00
10958;BME280;5531;42.570;23.676;2022-12-29T00:03:54;92883.19;;;2.07;100.00
10958;BME280;5531;42.570;23.676;2022-12-29T00:06:23;92882.66;;;2.13;100.00
10958;BME280;5531;42.570;23.676;2022-12-29T00:08:55;92876.00;;;2.11;100.00
10958;BME280;5531;42.570;23.676;2022-12-29T00:11:25;92882.78;;;2.12;100.00
10958;BME280;5531;42.570;23.676;2022-12-29T00:13:54;92877.06;;;2.08;100.00
10958;BME280;5531;42.570;23.676;2022-12-29T00:16:36;92881.28;;;2.09;100.00
10958;BME280;5531;42.570;23.676;2022-12-29T00:19:06;92889.41;;;2.05;100.00
10958;BME280;5531;42.570;23.676;2022-12-29T00:21:55;92890.22;;;2.05;100.00
10958;BME280;5531;42.570;23.676;2022-12-29T00:24:39;92894.47;;;2.06;100.00
10958;BME280;5531;42.570;23.676;2022-12-29T00:27:21;92893.78;;;2.04;100.00
10958;BME280;5531;42.570;23.676;2022-12-29T00:30:02;92893.44;;;1.97;100.00
10958;BME280;5531;42.570;23.676;2022-12-29T00:32:44;92895.88;;;2.10;100.00
10958;BME280;5531;42.570;23.676;2022-12-29T00:35:27;92893.91;;;2.03;100.00
10958;BME280;5531;42.570;23.676;2022-12-29T00:38:00;92888.84;;;2.01;100.00
10958;BME280;5531;42.570;23.676;2022-12-29T00:40:45;92897.78;;;1.97;100.00
10958;BME280;5531;42.570;23.676;2022-12-29T00:43:26;92889.22;;;1.96;100.00
10958;BME280;5531;42.570;23.676;2022-12-29T00:46:07;92894.06;;;1.90;100.00
10958;BME280;5531;42.570;23.676;2022-12-29T00:48:36;92899.34;;;1.88;100.00
10958;BME280;5531;42.570;23.676;2022-12-29T00:51:18;92908.16;;;1.86;100.00
10958;BME280;5531;42.570;23.676;2022-12-29T00:53:47;92901.16;;;1.76;100.00
10958;BME280;5531;42.570;23.676;2022-12-29T00:56:18;92901.72;;;1.80;100.00
10958;BME280;5531;42.570;23.676;2022-12-29T00:58:47;92877.31;;;1.73;100.00
10958;BME280;5531;42.570;23.676;2022-12-29T01:01:16;92889.72;;;1.79;100.00
10958;BME280;5531;42.570;23.676;2022-12-29T01:03:45;92886.59;;;1.75;100.00
10958;BME280;5531;42.570;23.676;2022-12-29T01:06:14;92888.13;;;1.78;100.00
10958;BME280;5531;42.570;23.676;2022-12-29T01:08:43;92891.75;;;1.75;100.00
10958;BME280;5531;42.570;23.676;2022-12-29T01:11:35;92890.94;;;1.75;100.00
10958;BME280;5531;42.570;23.676;2022-12-29T01:14:01;92881.66;;;1.72;100.00
10958;BME280;5531;42.570;23.676;2022-12-29T01:16:31;92887.63;;;1.73;100.00
10958;BME280;5531;42.570;23.676;2022-12-29T01:19:00;92876.84;;;1.68;100.00
10958;BME280;5531;42.570;23.676;2022-12-29T01:21:29;92877.69;;;1.68;100.00
10958;BME280;5531;42.570;23.676;2022-12-29T01:23:58;92869.56;;;1.73;100.00
10958;BME280;5531;42.570;23.676;2022-12-29T01:26:27;92870.66;;;1.59;100.00
10958;BME280;5531;42.570;23.676;2022-12-29T01:28:59;92871.69;;;1.68;100.00
10958;BME280;5531;42.570;23.676;2022-12-29T01:31:28;92873.47;;;1.67;100.00
10958;BME280;5531;42.570;23.676;2022-12-29T01:33:57;92863.00;;;1.69;100.00
10958;BME280;5531;42.570;23.676;2022-12-29T01:36:26;92862.09;;;1.58;100.00
10958;BME280;5531;42.570;23.676;2022-12-29T01:38:56;92859.19;;;1.52;100.00
10958;BME280;5531;42.570;23.676;2022-12-29T01:41:25;92858.72;;;1.46;100.00
10958;BME280;5531;42.570;23.676;2022-12-29T01:43:56;92857.09;;;1.45;100.00
10958;BME280;5531;42.570;23.676;2022-12-29T01:46:31;92853.56;;;1.46;100.00
10958;BME280;5531;42.570;23.676;2022-12-29T01:49:08;92853.34;;;1.38;100.00
10958;BME280;5531;42.570;23.676;2022-12-29T01:51:43;92843.00;;;1.38;100.00
10958;BME280;5531;42.570;23.676;2022-12-29T01:54:17;92829.41;;;1.36;100.00
10958;BME280;5531;42.570;23.676;2022-12-29T01:56:48;92838.19;;;1.45;100.00
10958;BME280;5531;42.570;23.676;2022-12-29T01:59:22;92837.50;;;1.43;100.00
10958;BME280;5531;42.570;23.676;2022-12-29T02:01:56;92825.16;;;1.46;100.00
10958;BME280;5531;42.570;23.676;2022-12-29T02:04:26;92828.56;;;1.47;100.00
10958;BME280;5531;42.570;23.676;2022-12-29T02:06:59;92829.25;;;1.49;100.00
10958;BME280;5531;42.570;23.676;2022-12-29T02:09:30;92828.69;;;1.45;100.00
10958;BME280;5531;42.570;23.676;2022-12-29T02:11:59;92830.72;;;1.42;100.00
10958;BME280;5531;42.570;23.676;2022-12-29T02:14:29;92825.28;;;1.45;100.00
10958;BME280;5531;42.570;23.676;2022-12-29T02:17:08;92823.78;;;1.42;100.00
10958;BME280;5531;42.570;23.676;2022-12-29T02:20:13;92826.22;;;1.44;100.00
10958;BME280;5531;42.570;23.676;2022-12-29T02:22:59;92824.91;;;1.50;100.00
10958;BME280;5531;42.570;23.676;2022-12-29T02:28:53;92823.66;;;1.44;100.00
10958;BME280;5531;42.570;23.676;2022-12-29T02:31:28;92818.72;;;1.41;100.00
10958;BME280;5531;42.570;23.676;2022-12-29T02:34:08;92821.06;;;1.44;100.00
10958;BME280;5531;42.570;23.676;2022-12-29T02:36:46;92823.66;;;1.44;100.00
10958;BME280;5531;42.570;23.676;2022-12-29T02:39:23;92820.09;;;1.45;100.00
10958;BME280;5531;42.570;23.676;2022-12-29T02:42:00;92820.50;;;1.40;100.00
10958;BME280;5531;42.570;23.676;2022-12-29T02:44:36;92811.09;;;1.39;100.00
10958;BME280;5531;42.570;23.676;2022-12-29T02:47:15;92809.69;;;1.35;100.00
10958;BME280;5531;42.570;23.676;2022-12-29T02:49:49;92814.63;;;1.38;100.00
10958;BME280;5531;42.570;23.676;2022-12-29T02:52:26;92809.34;;;1.40;100.00
10958;BME280;5531;42.570;23.676;2022-12-29T02:54:56;92816.03;;;1.42;100.00
10958;BME280;5531;42.570;23.676;2022-12-29T02:57:32;92819.53;;;1.41;100.00
10958;BME280;5531;42.570;23.676;2022-12-29T03:00:05;92819.88;;;1.48;100.00
10958;BME280;5531;42.570;23.676;2022-12-29T03:03:05;92815.03;;;1.55;100.00
10958;BME280;5531;42.570;23.676;2022-12-29T03:05:58;92817.25;;;1.59;100.00
10958;BME280;5531;42.570;23.676;2022-12-29T03:08:35;92823.38;;;1.58;100.00
10958;BME280;5531;42.570;23.676;2022-12-29T03:11:10;92825.25;;;1.56;100.00
10958;BME280;5531;42.570;23.676;2022-12-29T03:14:05;92814.22;;;1.54;100.00
10958;BME280;5531;42.570;23.676;2022-12-29T03:16:55;92818.00;;;1.50;100.00
10958;BME280;5531;42.570;23.676;2022-12-29T03:19:32;92817.72;;;1.53;100.00
10958;BME280;5531;42.570;23.676;2022-12-29T03:22:05;92808.38;;;1.52;100.00
10958;BME280;5531;42.570;23.676;2022-12-29T03:24:50;92810.25;;;1.50;100.00
10958;BME280;5531;42.570;23.676;2022-12-29T03:27:23;92812.72;;;1.52;100.00
10958;BME280;5531;42.570;23.676;2022-12-29T03:29:57;92809.53;;;1.48;100.00
10958;BME280;5531;42.570;23.676;2022-12-29T03:32:29;92813.19;;;1.45;100.00
10958;BME280;5531;42.570;23.676;2022-12-29T03:35:03;92811.44;;;1.46;100.00
10958;BME280;5531;42.570;23.676;2022-12-29T03:37:36;92818.25;;;1.47;100.00
10958;BME280;5531;42.570;23.676;2022-12-29T03:40:07;92818.00;;;1.50;100.00
10958;BME280;5531;42.570;23.676;2022-12-29T03:42:37;92807.78;;;1.49;100.00
10958;BME280;5531;42.570;23.676;2022-12-29T03:45:08;92811.75;;;1.53;100.00
10958;BME280;5531;42.570;23.676;2022-12-29T03:47:38;92823.75;;;1.54;100.00
10958;BME280;5531;42.570;23.676;2022-12-29T03:50:11;92819.50;;;1.53;100.00
10958;BME280;5531;42.570;23.676;2022-12-29T03:52:40;92825.97;;;1.58;100.00
10958;BME280;5531;42.570;23.676;2022-12-29T03:55:09;92816.44;;;1.59;100.00
10958;BME280;5531;42.570;23.676;2022-12-29T03:57:39;92810.06;;;1.63;100.00
10958;BME280;5531;42.570;23.676;2022-12-29T04:00:09;92811.97;;;1.61;100.00
10958;BME280;5531;42.570;23.676;2022-12-29T04:02:39;92808.81;;;1.57;100.00
10958;BME280;5531;42.570;23.676;2022-12-29T04:05:10;92812.09;;;1.59;100.00
10958;BME280;5531;42.570;23.676;2022-12-29T04:07:39;92807.88;;;1.58;100.00
10958;BME280;5531;42.570;23.676;2022-12-29T04:10:09;92819.34;;;1.65;100.00
10958;BME280;5531;42.570;23.676;2022-12-29T04:12:38;92807.75;;;1.60;100.00
10958;BME280;5531;42.570;23.676;2022-12-29T04:15:08;92812.31;;;1.56;100.00
10958;BME280;5531;42.570;23.676;2022-12-29T04:17:37;92811.72;;;1.64;100.00
10958;BME280;5531;42.570;23.676;2022-12-29T04:20:10;92802.19;;;1.64;100.00
10958;BME280;5531;42.570;23.676;2022-12-29T04:22:58;92798.69;;;1.65;100.00
10958;BME280;5531;42.570;23.676;2022-12-29T04:25:27;92802.78;;;1.68;100.00
10958;BME280;5531;42.570;23.676;2022-12-29T04:27:56;92806.44;;;1.65;100.00
10958;BME280;5531;42.570;23.676;2022-12-29T04:30:25;92805.88;;;1.62;100.00
10958;BME280;5531;42.570;23.676;2022-12-29T04:32:54;92797.75;;;1.67;100.00
10958;BME280;5531;42.570;23.676;2022-12-29T04:35:26;92807.13;;;1.68;100.00
10958;BME280;5531;42.570;23.676;2022-12-29T04:37:55;92816.75;;;1.65;100.00
10958;BME280;5531;42.570;23.676;2022-12-29T04:40:24;92821.81;;;1.67;100.00
10958;BME280;5531;42.570;23.676;2022-12-29T04:42:53;92817.00;;;1.62;100.00
10958;BME280;5531;42.570;23.676;2022-12-29T04:45:22;92820.56;;;1.61;100.00
10958;BME280;5531;42.570;23.676;2022-12-29T04:47:51;92820.78;;;1.58;100.00
10958;BME280;5531;42.570;23.676;2022-12-29T04:50:20;92821.47;;;1.60;100.00
10958;BME280;5531;42.570;23.676;2022-12-29T04:52:52;92830.88;;;1.61;100.00
10958;BME280;5531;42.570;23.676;2022-12-29T04:55:21;92843.56;;;1.53;100.00
10958;BME280;5531;42.570;23.676;2022-12-29T04:57:50;92837.47;;;1.54;100.00
10958;BME280;5531;42.570;23.676;2022-12-29T05:00:19;92833.81;;;1.57;100.00
10958;BME280;5531;42.570;23.676;2022-12-29T05:02:49;92842.50;;;1.56;100.00
10958;BME280;5531;42.570;23.676;2022-12-29T05:05:18;92841.56;;;1.57;100.00
10958;BME280;5531;42.570;23.676;2022-12-29T05:07:47;92841.13;;;1.52;100.00
10958;BME280;5531;42.570;23.676;2022-12-29T05:10:19;92843.91;;;1.60;100.00
10958;BME280;5531;42.570;23.676;2022-12-29T05:12:48;92848.25;;;1.59;100.00
10958;BME280;5531;42.570;23.676;2022-12-29T05:15:17;92842.72;;;1.64;100.00
10958;BME280;5531;42.570;23.676;2022-12-29T05:18:16;92853.59;;;1.68;100.00
10958;BME280;5531;42.570;23.676;2022-12-29T05:20:46;92849.66;;;1.63;100.00
10958;BME280;5531;42.570;23.676;2022-12-29T05:23:16;92853.16;;;1.62;100.00
10958;BME280;5531;42.570;23.676;2022-12-29T05:25:48;92853.41;;;1.59;100.00
10958;BME280;5531;42.570;23.676;2022-12-29T05:28:17;92851.78;;;1.58;100.00
10958;BME280;5531;42.570;23.676;2022-12-29T05:30:48;92851.78;;;1.58;100.00
10958;BME280;5531;42.570;23.676;2022-12-29T05:33:17;92853.66;;;1.56;100.00
10958;BME280;5531;42.570;23.676;2022-12-29T05:35:47;92860.56;;;1.56;100.00
10958;BME280;5531;42.570;23.676;2022-12-29T05:38:16;92859.56;;;1.47;100.00
10958;BME280;5531;42.570;23.676;2022-12-29T05:40:47;92861.91;;;1.50;100.00
10958;BME280;5531;42.570;23.676;2022-12-29T05:43:16;92855.78;;;1.51;100.00
10958;BME280;5531;42.570;23.676;2022-12-29T05:45:48;92864.72;;;1.47;100.00
10958;BME280;5531;42.570;23.676;2022-12-29T05:48:17;92861.56;;;1.43;100.00
10958;BME280;5531;42.570;23.676;2022-12-29T05:50:47;92853.09;;;1.41;100.00
10958;BME280;5531;42.570;23.676;2022-12-29T05:53:17;92854.41;;;1.47;100.00
10958;BME280;5531;42.570;23.676;2022-12-29T05:55:49;92855.09;;;1.49;100.00
10958;BME280;5531;42.570;23.676;2022-12-29T05:58:18;92856.00;;;1.48;100.00
10958;BME280;5531;42.570;23.676;2022-12-29T06:00:47;92853.53;;;1.58;100.00
10958;BME280;5531;42.570;23.676;2022-12-29T06:03:17;92859.75;;;1.67;100.00
10958;BME280;5531;42.570;23.676;2022-12-29T06:05:46;92857.25;;;1.76;100.00
10958;BME280;5531;42.570;23.676;2022-12-29T06:08:15;92856.06;;;1.69;100.00
10958;BME280;5531;42.570;23.676;2022-12-29T06:10:44;92851.06;;;1.56;100.00
10958;BME280;5531;42.570;23.676;2022-12-29T06:13:16;92856.94;;;1.58;100.00
10958;BME280;5531;42.570;23.676;2022-12-29T06:15:48;92858.47;;;1.50;100.00
10958;BME280;5531;42.570;23.676;2022-12-29T06:18:17;92861.56;;;1.43;100.00
10958;BME280;5531;42.570;23.676;2022-12-29T06:20:47;92864.47;;;1.50;100.00
10958;BME280;5531;42.570;23.676;2022-12-29T06:23:16;92858.72;;;1.46;100.00
10958;BME280;5531;42.570;23.676;2022-12-29T06:25:47;92852.16;;;1.42;100.00
10958;BME280;5531;42.570;23.676;2022-12-29T06:28:20;92862.03;;;1.49;100.00
10958;BME280;5531;42.570;23.676;2022-12-29T06:30:49;92869.25;;;1.55;100.00
10958;BME280;5531;42.570;23.676;2022-12-29T06:33:18;92859.78;;;1.55;100.00
10958;BME280;5531;42.570;23.676;2022-12-29T06:35:48;92864.06;;;1.66;100.00
10958;BME280;5531;42.570;23.676;2022-12-29T06:38:17;92866.66;;;1.66;100.00
10958;BME280;5531;42.570;23.676;2022-12-29T06:40:46;92867.81;;;1.73;100.00
10958;BME280;5531;42.570;23.676;2022-12-29T06:43:15;92870.28;;;1.75;100.00
10958;BME280;5531;42.570;23.676;2022-12-29T06:45:46;92876.84;;;1.68;100.00
10958;BME280;5531;42.570;23.676;2022-12-29T06:48:16;92872.66;;;1.67;100.00
10958;BME280;5531;42.570;23.676;2022-12-29T06:50:45;92873.94;;;1.61;100.00
10958;BME280;5531;42.570;23.676;2022-12-29T06:53:14;92875.69;;;1.72;100.00
10958;BME280;5531;42.570;23.676;2022-12-29T06:55:43;92892.09;;;1.71;100.00
10958;BME280;5531;42.570;23.676;2022-12-29T06:58:11;92883.66;;;1.69;100.00
10958;BME280;5531;42.570;23.676;2022-12-29T07:00:40;92880.16;;;1.70;100.00
10958;BME280;5531;42.570;23.676;2022-12-29T07:03:12;92886.34;;;1.78;100.00
10958;BME280;5531;42.570;23.676;2022-12-29T07:05:41;92891.75;;;1.75;100.00
10958;BME280;5531;42.570;23.676;2022-12-29T07:08:10;92890.38;;;1.71;100.00
10958;BME280;5531;42.570;23.676;2022-12-29T07:10:39;92889.16;;;1.75;100.00
10958;BME280;5531;42.570;23.676;2022-12-29T07:13:09;92894.41;;;1.85;100.00
10958;BME280;5531;42.570;23.676;2022-12-29T07:15:37;92886.63;;;1.96;100.00
10958;BME280;5531;42.570;23.676;2022-12-29T07:18:07;92897.78;;;1.97;100.00
10958;BME280;5531;42.570;23.676;2022-12-29T07:20:39;92892.00;;;2.05;100.00
10958;BME280;5531;42.570;23.676;2022-12-29T07:23:08;92891.75;;;2.08;100.00
10958;BME280;5531;42.570;23.676;2022-12-29T07:25:37;92891.16;;;2.15;100.00
10958;BME280;5531;42.570;23.676;2022-12-29T07:28:07;92894.06;;;2.22;100.00
10958;BME280;5531;42.570;23.676;2022-12-29T07:30:37;92899.47;;;2.19;100.00
10958;BME280;5531;42.570;23.676;2022-12-29T07:33:06;92896.94;;;2.29;100.00
10958;BME280;5531;42.570;23.676;2022-12-29T07:35:38;92895.88;;;2.31;100.00
10958;BME280;5531;42.570;23.676;2022-12-29T07:38:07;92904.09;;;2.36;100.00
10958;BME280;5531;42.570;23.676;2022-12-29T07:40:36;92892.97;;;2.25;100.00
10958;BME280;5531;42.570;23.676;2022-12-29T07:43:05;92900.97;;;2.22;100.00
10958;BME280;5531;42.570;23.676;2022-12-29T07:45:34;92894.47;;;2.06;100.00
10958;BME280;5531;42.570;23.676;2022-12-29T07:48:05;92896.19;;;2.17;100.00
10958;BME280;5531;42.570;23.676;2022-12-29T07:50:35;92896.63;;;2.22;100.00
10958;BME280;5531;42.570;23.676;2022-12-29T07:53:06;92893.09;;;2.23;100.00
10958;BME280;5531;42.570;23.676;2022-12-29T07:55:36;92901.44;;;2.27;100.00
10958;BME280;5531;42.570;23.676;2022-12-29T07:58:05;92891.41;;;2.33;100.00
10958;BME280;5531;42.570;23.676;2022-12-29T08:00:34;92895.44;;;2.47;100.00
10958;BME280;5531;42.570;23.676;2022-12-29T08:03:03;92899.31;;;2.53;100.00
10958;BME280;5531;42.570;23.676;2022-12-29T08:05:33;92892.16;;;2.45;100.00
10958;BME280;5531;42.570;23.676;2022-12-29T08:08:03;92897.19;;;2.26;100.00
10958;BME280;5531;42.570;23.676;2022-12-29T08:10:35;92890.50;;;2.23;100.00
10958;BME280;5531;42.570;23.676;2022-12-29T08:13:04;92890.25;;;2.26;100.00
10958;BME280;5531;42.570;23.676;2022-12-29T08:15:33;92890.00;;;2.29;100.00
10958;BME280;5531;42.570;23.676;2022-12-29T08:18:02;92892.91;;;2.36;100.00
10958;BME280;5531;42.570;23.676;2022-12-29T08:20:31;92896.78;;;2.42;100.00
10958;BME280;5531;42.570;23.676;2022-12-29T08:23:01;92892.72;;;2.49;100.00
10958;BME280;5531;42.570;23.676;2022-12-29T08:25:30;92897.72;;;2.62;100.00
10958;BME280;5531;42.570;23.676;2022-12-29T08:28:01;92892.66;;;2.81;100.00
10958;BME280;5531;42.570;23.676;2022-12-29T08:30:30;92902.56;;;2.76;100.00
10958;BME280;5531;42.570;23.676;2022-12-29T08:32:59;92900.97;;;2.85;100.00
10958;BME280;5531;42.570;23.676;2022-12-29T08:35:28;92896.84;;;3.03;100.00
10958;BME280;5531;42.570;23.676;2022-12-29T08:37:57;92902.53;;;3.28;100.00
10958;BME280;5531;42.570;23.676;2022-12-29T08:40:26;92894.44;;;3.52;100.00
10958;BME280;5531;42.570;23.676;2022-12-29T08:42:55;92894.06;;;3.76;100.00
10958;BME280;5531;42.570;23.676;2022-12-29T08:45:27;92904.44;;;3.96;100.00
10958;BME280;5531;42.570;23.676;2022-12-29T08:47:56;92894.78;;;4.08;100.00
10958;BME280;5531;42.570;23.676;2022-12-29T08:50:25;92892.75;;;4.31;100.00
10958;BME280;5531;42.570;23.676;2022-12-29T08:52:54;92886.16;;;4.46;100.00
10958;BME280;5531;42.570;23.676;2022-12-29T08:55:23;92890.38;;;4.67;100.00
10958;BME280;5531;42.570;23.676;2022-12-29T08:57:52;92887.75;;;4.86;100.00
10958;BME280;5531;42.570;23.676;2022-12-29T09:00:21;92879.38;;;5.02;100.00
10958;BME280;5531;42.570;23.676;2022-12-29T09:02:54;92875.59;;;5.24;100.00
10958;BME280;5531;42.570;23.676;2022-12-29T09:05:22;92871.44;;;5.41;100.00
10958;BME280;5531;42.570;23.676;2022-12-29T09:07:51;92874.13;;;5.49;100.00
10958;BME280;5531;42.570;23.676;2022-12-29T09:10:20;92866.00;;;5.62;100.00
10958;BME280;5531;42.570;23.676;2022-12-29T09:12:49;92865.19;;;5.80;100.00
10958;BME280;5531;42.570;23.676;2022-12-29T09:15:18;92868.81;;;5.97;100.00
10958;BME280;5531;42.570;23.676;2022-12-29T09:17:47;92864.34;;;6.07;100.00
10958;BME280;5531;42.570;23.676;2022-12-29T09:20:19;92867.75;;;6.08;100.00
10958;BME280;5531;42.570;23.676;2022-12-29T09:22:48;92861.69;;;6.17;100.00
10958;BME280;5531;42.570;23.676;2022-12-29T09:25:17;92868.16;;;6.31;100.00
10958;BME280;5531;42.570;23.676;2022-12-29T09:27:49;92868.19;;;6.57;100.00
10958;BME280;5531;42.570;23.676;2022-12-29T09:30:20;92865.22;;;6.70;100.00
10958;BME280;5531;42.570;23.676;2022-12-29T09:32:49;92865.50;;;6.67;100.00
10958;BME280;5531;42.570;23.676;2022-12-29T09:35:21;92863.72;;;6.67;100.00
10958;BME280;5531;42.570;23.676;2022-12-29T09:37:50;92864.78;;;6.83;100.00
10958;BME280;5531;42.570;23.676;2022-12-29T09:40:30;92861.72;;;6.87;99.57
10958;BME280;5531;42.570;23.676;2022-12-29T09:43:26;92864.84;;;6.91;98.59
10958;BME280;5531;42.570;23.676;2022-12-29T09:46:05;92856.91;;;7.01;96.95
10958;BME280;5531;42.570;23.676;2022-12-29T09:48:39;92855.44;;;6.98;96.67
10958;BME280;5531;42.570;23.676;2022-12-29T09:51:15;92858.75;;;7.08;97.12
10958;BME280;5531;42.570;23.676;2022-12-29T09:53:48;92859.75;;;7.07;95.47
10958;BME280;5531;42.570;23.676;2022-12-29T09:56:21;92852.78;;;6.90;95.40
10958;BME280;5531;42.570;23.676;2022-12-29T09:58:52;92851.56;;;6.76;95.52
10958;BME280;5531;42.570;23.676;2022-12-29T10:01:28;92847.09;;;6.86;95.76
10958;BME280;5531;42.570;23.676;2022-12-29T10:04:00;92853.75;;;6.89;95.87
10958;BME280;5531;42.570;23.676;2022-12-29T10:06:39;92853.00;;;6.96;95.53
10958;BME280;5531;42.570;23.676;2022-12-29T10:09:15;92848.75;;;6.95;95.22
10958;BME280;5531;42.570;23.676;2022-12-29T10:12:06;92848.09;;;6.93;95.57
10958;BME280;5531;42.570;23.676;2022-12-29T10:14:55;92848.53;;;6.89;95.24
10958;BME280;5531;42.570;23.676;2022-12-29T10:17:33;92843.53;;;6.95;95.30
10958;BME280;5531;42.570;23.676;2022-12-29T10:20:16;92839.28;;;6.86;95.16
10958;BME280;5531;42.570;23.676;2022-12-29T10:23:03;92834.75;;;6.96;95.61
10958;BME280;5531;42.570;23.676;2022-12-29T10:25:37;92835.75;;;7.04;95.10
10958;BME280;5531;42.570;23.676;2022-12-29T10:28:16;92839.66;;;7.00;95.76
10958;BME280;5531;42.570;23.676;2022-12-29T10:30:48;92842.47;;;7.06;94.51
10958;BME280;5531;42.570;23.676;2022-12-29T10:33:20;92834.84;;;7.13;94.41
10958;BME280;5531;42.570;23.676;2022-12-29T10:35:52;92823.81;;;7.19;94.75
10958;BME280;5531;42.570;23.676;2022-12-29T10:38:28;92833.63;;;7.25;93.93
10958;BME280;5531;42.570;23.676;2022-12-29T10:41:04;92830.72;;;7.37;93.31
10958;BME280;5531;42.570;23.676;2022-12-29T10:43:43;92820.78;;;7.32;93.22
10958;BME280;5531;42.570;23.676;2022-12-29T10:46:16;92819.34;;;7.46;93.50
10958;BME280;5531;42.570;23.676;2022-12-29T10:48:46;92812.41;;;7.63;92.81
10958;BME280;5531;42.570;23.676;2022-12-29T10:51:20;92813.06;;;7.73;92.24
10958;BME280;5531;42.570;23.676;2022-12-29T10:53:57;92812.94;;;7.83;91.96
10958;BME280;5531;42.570;23.676;2022-12-29T10:56:33;92808.03;;;7.88;90.69
10958;BME280;5531;42.570;23.676;2022-12-29T10:59:12;92816.69;;;7.88;90.38
10958;BME280;5531;42.570;23.676;2022-12-29T11:01:58;92803.66;;;8.05;92.34
10958;BME280;5531;42.570;23.676;2022-12-29T11:04:39;92811.38;;;8.23;89.63
10958;BME280;5531;42.570;23.676;2022-12-29T11:07:12;92801.56;;;8.17;90.42
10958;BME280;5531;42.570;23.676;2022-12-29T11:09:47;92802.84;;;8.29;89.19
10958;BME280;5531;42.570;23.676;2022-12-29T11:12:22;92801.44;;;8.43;88.67
10958;BME280;5531;42.570;23.676;2022-12-29T11:15:11;92792.94;;;8.41;88.47
10958;BME280;5531;42.570;23.676;2022-12-29T11:17:46;92783.81;;;8.45;88.39
10958;BME280;5531;42.570;23.676;2022-12-29T11:20:33;92793.44;;;8.53;87.67
10958;BME280;5531;42.570;23.676;2022-12-29T11:23:22;92789.50;;;8.57;89.02
10958;BME280;5531;42.570;23.676;2022-12-29T11:26:11;92796.69;;;8.63;88.21
10958;BME280;5531;42.570;23.676;2022-12-29T11:28:43;92791.28;;;8.65;87.27
10958;BME280;5531;42.570;23.676;2022-12-29T11:31:16;92787.72;;;8.66;88.44
10958;BME280;5531;42.570;23.676;2022-12-29T11:33:46;92786.53;;;8.76;85.83
10958;BME280;5531;42.570;23.676;2022-12-29T11:36:17;92779.19;;;8.80;85.42
10958;BME280;5531;42.570;23.676;2022-12-29T11:38:50;92768.75;;;8.80;86.20
10958;BME280;5531;42.570;23.676;2022-12-29T11:41:24;92768.88;;;8.87;86.40
10958;BME280;5531;42.570;23.676;2022-12-29T11:43:56;92775.09;;;8.86;85.80
10958;BME280;5531;42.570;23.676;2022-12-29T11:46:28;92766.13;;;8.80;86.42
10958;BME280;5531;42.570;23.676;2022-12-29T11:48:59;92769.06;;;8.85;85.28
10958;BME280;5531;42.570;23.676;2022-12-29T11:51:30;92769.38;;;8.82;86.35
10958;BME280;5531;42.570;23.676;2022-12-29T11:54:04;92761.56;;;8.82;85.80
10958;BME280;5531;42.570;23.676;2022-12-29T11:56:38;92759.25;;;8.79;86.49
10958;BME280;5531;42.570;23.676;2022-12-29T12:02:35;92757.94;;;8.83;86.62
10958;BME280;5531;42.570;23.676;2022-12-29T12:05:10;92755.81;;;8.87;87.18
10958;BME280;5531;42.570;23.676;2022-12-29T12:07:44;92750.25;;;8.98;86.16
10958;BME280;5531;42.570;23.676;2022-12-29T12:10:20;92759.50;;;9.09;84.93
10958;BME280;5531;42.570;23.676;2022-12-29T12:13:02;92754.56;;;9.14;85.44
10958;BME280;5531;42.570;23.676;2022-12-29T12:15:36;92751.28;;;9.20;85.13
10958;BME280;5531;42.570;23.676;2022-12-29T12:18:12;92757.81;;;9.24;84.38
10958;BME280;5531;42.570;23.676;2022-12-29T12:20:49;92757.13;;;9.30;84.69
10958;BME280;5531;42.570;23.676;2022-12-29T12:23:30;92745.97;;;9.36;84.50
10958;BME280;5531;42.570;23.676;2022-12-29T12:26:09;92747.56;;;9.46;83.23
10958;BME280;5531;42.570;23.676;2022-12-29T12:28:48;92749.56;;;9.44;82.43
10958;BME280;5531;42.570;23.676;2022-12-29T12:31:31;92751.41;;;9.27;84.09
10958;BME280;5531;42.570;23.676;2022-12-29T12:34:09;92746.03;;;9.28;83.71
10958;BME280;5531;42.570;23.676;2022-12-29T12:37:06;92754.38;;;9.24;83.93
10958;BME280;5531;42.570;23.676;2022-12-29T12:39:48;92755.06;;;9.09;83.96
10958;BME280;5531;42.570;23.676;2022-12-29T12:42:33;92756.75;;;9.02;84.00
10958;BME280;5531;42.570;23.676;2022-12-29T12:45:31;92755.63;;;8.96;84.40
10958;BME280;5531;42.570;23.676;2022-12-29T12:48:12;92752.88;;;8.90;85.07
10958;BME280;5531;42.570;23.676;2022-12-29T12:50:52;92759.72;;;8.91;85.89
10958;BME280;5531;42.570;23.676;2022-12-29T12:53:36;92756.63;;;8.87;85.71
10958;BME280;5531;42.570;23.676;2022-12-29T12:59:13;92752.09;;;8.73;86.07
10958;BME280;5531;42.570;23.676;2022-12-29T13:01:54;92756.97;;;8.76;85.98
10958;BME280;5531;42.570;23.676;2022-12-29T13:04:48;92760.41;;;8.68;86.68
10958;BME280;5531;42.570;23.676;2022-12-29T13:07:31;92759.31;;;8.54;87.24
10958;BME280;5531;42.570;23.676;2022-12-29T13:10:26;92756.50;;;8.72;87.55
10958;BME280;5531;42.570;23.676;2022-12-29T13:13:27;92750.94;;;8.84;87.00
10958;BME280;5531;42.570;23.676;2022-12-29T13:16:01;92760.53;;;8.83;85.67
10958;BME280;5531;42.570;23.676;2022-12-29T13:18:44;92767.09;;;8.79;85.85
10958;BME280;5531;42.570;23.676;2022-12-29T13:21:32;92755.69;;;8.80;86.36
10958;BME280;5531;42.570;23.676;2022-12-29T13:24:10;92757.94;;;8.75;86.35
10958;BME280;5531;42.570;23.676;2022-12-29T13:26:47;92768.94;;;8.70;87.56
10958;BME280;5531;42.570;23.676;2022-12-29T13:29:23;92754.53;;;8.74;87.29
10958;BME280;5531;42.570;23.676;2022-12-29T13:32:08;92759.75;;;8.83;86.21
10958;BME280;5531;42.570;23.676;2022-12-29T13:34:53;92772.81;;;8.83;86.42
10958;BME280;5531;42.570;23.676;2022-12-29T13:37:27;92756.63;;;8.87;86.08
10958;BME280;5531;42.570;23.676;2022-12-29T13:40:02;92764.94;;;8.91;86.26
10958;BME280;5531;42.570;23.676;2022-12-29T13:42:32;92761.84;;;8.95;86.62
10958;BME280;5531;42.570;23.676;2022-12-29T13:45:06;92763.88;;;9.16;85.42
10958;BME280;5531;42.570;23.676;2022-12-29T13:47:41;92768.78;;;9.20;84.41